createdAt,value
2019-02-26T00:01:53.025Z,100.00
2019-02-26T00:04:25.441Z,100.00
2019-02-26T00:06:57.947Z,100.00
2019-02-26T00:09:30.544Z,100.00
2019-02-26T00:12:01.657Z,100.00
2019-02-26T00:14:32.326Z,100.00
2019-02-26T00:17:06.169Z,100.00
2019-02-26T00:19:34.786Z,100.00
2019-02-26T00:22:07.235Z,100.00
2019-02-26T00:24:39.737Z,100.00
2019-02-26T00:27:10.065Z,100.00
2019-02-26T00:29:40.476Z,100.00
2019-02-26T00:32:12.266Z,100.00
2019-02-26T00:34:44.733Z,100.00
2019-02-26T00:37:17.088Z,100.00
2019-02-26T00:39:49.688Z,100.00
2019-02-26T00:42:23.593Z,100.00
2019-02-26T00:44:55.483Z,100.00
2019-02-26T00:47:31.851Z,100.00
2019-02-26T00:50:00.313Z,100.00
2019-02-26T00:52:32.552Z,100.00
2019-02-26T00:55:04.948Z,100.00
2019-02-26T00:57:36.467Z,100.00
2019-02-26T01:00:09.930Z,100.00
2019-02-26T01:02:41.013Z,100.00
2019-02-26T01:05:13.210Z,100.00
2019-02-26T01:07:44.919Z,100.00
2019-02-26T01:10:16.916Z,100.00
2019-02-26T01:12:47.719Z,100.00
2019-02-26T01:15:18.059Z,100.00
2019-02-26T01:17:48.602Z,100.00
2019-02-26T01:20:19.627Z,100.00
2019-02-26T01:22:50.995Z,100.00
2019-02-26T01:25:22.925Z,100.00
2019-02-26T01:27:55.614Z,100.00
2019-02-26T01:30:27.000Z,100.00
2019-02-26T01:32:59.930Z,100.00
2019-02-26T01:35:30.759Z,100.00
2019-02-26T01:38:01.995Z,100.00
2019-02-26T01:40:32.814Z,100.00
2019-02-26T01:43:05.507Z,100.00
2019-02-26T01:45:35.513Z,100.00
2019-02-26T01:48:08.344Z,100.00
2019-02-26T01:50:40.609Z,100.00
2019-02-26T01:53:12.010Z,100.00
2019-02-26T01:55:44.154Z,100.00
2019-02-26T01:58:16.587Z,100.00
2019-02-26T02:00:46.549Z,100.00
2019-02-26T02:03:18.626Z,100.00
2019-02-26T02:05:50.777Z,100.00
2019-02-26T02:08:24.454Z,100.00
2019-02-26T02:10:56.544Z,100.00
2019-02-26T02:13:28.770Z,100.00
2019-02-26T02:15:59.827Z,100.00
2019-02-26T02:18:30.703Z,100.00
2019-02-26T02:21:01.058Z,100.00
2019-02-26T02:23:31.431Z,100.00
2019-02-26T02:26:04.078Z,100.00
2019-02-26T02:28:35.604Z,100.00
2019-02-26T02:31:06.147Z,100.00
2019-02-26T02:33:37.569Z,100.00
2019-02-26T02:36:09.716Z,100.00
2019-02-26T02:38:39.912Z,100.00
2019-02-26T02:41:10.180Z,100.00
2019-02-26T02:43:40.561Z,100.00
2019-02-26T02:46:10.888Z,100.00
2019-02-26T02:48:41.849Z,100.00
2019-02-26T02:51:13.885Z,100.00
2019-02-26T02:53:47.720Z,100.00
2019-02-26T02:56:18.167Z,100.00
2019-02-26T02:58:49.487Z,100.00
2019-02-26T03:01:22.948Z,100.00
2019-02-26T03:03:53.804Z,100.00
2019-02-26T03:06:27.245Z,100.00
2019-02-26T03:08:56.875Z,100.00
2019-02-26T03:11:27.259Z,100.00
2019-02-26T03:13:57.504Z,100.00
2019-02-26T03:16:27.802Z,100.00
2019-02-26T03:18:58.329Z,100.00
2019-02-26T03:21:30.683Z,100.00
2019-02-26T03:24:02.886Z,100.00
2019-02-26T03:26:33.051Z,100.00
2019-02-26T03:29:03.419Z,100.00
2019-02-26T03:31:35.214Z,100.00
2019-02-26T03:34:10.576Z,100.00
2019-02-26T03:36:40.187Z,100.00
2019-02-26T03:39:09.773Z,100.00
2019-02-26T03:41:40.326Z,100.00
2019-02-26T03:44:11.458Z,100.00
2019-02-26T03:46:41.715Z,100.00
2019-02-26T03:49:12.146Z,100.00
2019-02-26T03:51:42.432Z,100.00
2019-02-26T03:54:12.689Z,100.00
2019-02-26T03:56:43.356Z,100.00
2019-02-26T03:59:13.611Z,100.00
2019-02-26T04:01:43.873Z,100.00
2019-02-26T04:04:14.442Z,100.00
2019-02-26T04:06:47.110Z,100.00
2019-02-26T04:09:18.966Z,100.00
2019-02-26T04:11:51.025Z,100.00
2019-02-26T04:14:22.895Z,100.00
2019-02-26T04:16:56.065Z,100.00
2019-02-26T04:19:26.879Z,100.00
2019-02-26T04:22:34.276Z,100.00
2019-02-26T04:25:11.173Z,100.00
2019-02-26T04:28:30.754Z,100.00
2019-02-26T04:31:38.516Z,100.00
2019-02-26T04:34:28.877Z,100.00
2019-02-26T04:37:30.151Z,100.00
2019-02-26T04:40:30.397Z,100.00
2019-02-26T04:43:34.114Z,100.00
2019-02-26T04:46:31.043Z,100.00
2019-02-26T04:49:00.338Z,100.00
2019-02-26T04:51:31.039Z,100.00
2019-02-26T04:54:02.130Z,100.00
2019-02-26T04:56:36.007Z,100.00
2019-02-26T04:59:07.042Z,100.00
2019-02-26T05:01:36.904Z,100.00
2019-02-26T05:04:07.177Z,100.00
2019-02-26T05:06:39.546Z,100.00
2019-02-26T05:09:10.618Z,100.00
2019-02-26T05:11:40.994Z,100.00
2019-02-26T05:14:14.300Z,100.00
2019-02-26T05:16:43.814Z,100.00
2019-02-26T05:19:16.420Z,100.00
2019-02-26T05:21:45.960Z,100.00
2019-02-26T05:24:18.012Z,100.00
2019-02-26T05:26:48.416Z,100.00
2019-02-26T05:29:18.741Z,100.00
2019-02-26T05:31:49.522Z,100.00
2019-02-26T05:34:22.618Z,100.00
2019-02-26T05:36:52.146Z,100.00
2019-02-26T05:39:25.664Z,100.00
2019-02-26T05:41:58.845Z,100.00
2019-02-26T05:44:27.907Z,100.00
2019-02-26T05:47:01.367Z,100.00
2019-02-26T05:49:32.204Z,100.00
2019-02-26T05:52:04.206Z,100.00
2019-02-26T05:54:35.402Z,100.00
2019-02-26T05:57:06.672Z,100.00
2019-02-26T05:59:37.725Z,100.00
2019-02-26T06:02:10.587Z,100.00
2019-02-26T06:04:41.854Z,100.00
2019-02-26T06:07:12.578Z,100.00
2019-02-26T06:09:45.204Z,100.00
2019-02-26T06:12:15.150Z,100.00
2019-02-26T06:14:45.537Z,100.00
2019-02-26T06:17:17.952Z,100.00
2019-02-26T06:19:49.366Z,100.00
2019-02-26T06:22:21.325Z,100.00
2019-02-26T06:24:54.955Z,100.00
2019-02-26T06:27:25.180Z,100.00
2019-02-26T06:29:58.178Z,100.00
2019-02-26T06:32:32.229Z,100.00
2019-02-26T06:35:00.429Z,100.00
2019-02-26T06:37:33.061Z,100.00
2019-02-26T06:40:05.669Z,100.00
2019-02-26T06:42:38.068Z,100.00
2019-02-26T06:45:11.536Z,100.00
2019-02-26T06:47:42.800Z,100.00
2019-02-26T06:50:15.846Z,100.00
2019-02-26T06:52:47.489Z,100.00
2019-02-26T06:55:17.384Z,100.00
2019-02-26T06:57:50.818Z,100.00
2019-02-26T07:00:23.933Z,100.00
2019-02-26T07:02:53.577Z,100.00
2019-02-26T07:05:24.666Z,100.00
2019-02-26T07:07:57.146Z,100.00
2019-02-26T07:10:30.774Z,100.00
2019-02-26T07:12:59.530Z,100.00
2019-02-26T07:15:30.163Z,100.00
2019-02-26T07:18:04.437Z,100.00
2019-02-26T07:20:34.306Z,100.00
2019-02-26T07:23:05.786Z,100.00
2019-02-26T07:25:39.440Z,100.00
2019-02-26T07:28:09.588Z,100.00
2019-02-26T07:30:42.318Z,100.00
2019-02-26T07:33:14.979Z,100.00
2019-02-26T07:35:44.395Z,100.00
2019-02-26T07:38:16.175Z,100.00
2019-02-26T07:40:47.245Z,100.00
2019-02-26T07:43:19.930Z,100.00
2019-02-26T07:45:51.335Z,100.00
2019-02-26T07:48:28.772Z,100.00
2019-02-26T07:50:59.719Z,100.00
2019-02-26T07:53:30.108Z,100.00
2019-02-26T07:56:01.796Z,100.00
2019-02-26T07:58:33.288Z,100.00
2019-02-26T08:01:05.686Z,100.00
2019-02-26T08:03:36.135Z,100.00
2019-02-26T08:06:11.633Z,100.00
2019-02-26T08:08:44.963Z,100.00
2019-02-26T08:11:20.309Z,100.00
2019-02-26T08:13:59.347Z,100.00
2019-02-26T08:16:30.325Z,100.00
2019-02-26T08:19:01.353Z,100.00
2019-02-26T08:21:31.827Z,100.00
2019-02-26T08:24:02.438Z,100.00
2019-02-26T08:26:32.760Z,100.00
2019-02-26T08:29:05.116Z,100.00
2019-02-26T08:31:35.018Z,100.00
2019-02-26T08:34:05.241Z,100.00
2019-02-26T08:36:35.551Z,100.00
2019-02-26T08:39:09.171Z,100.00
2019-02-26T08:41:39.552Z,100.00
2019-02-26T08:44:10.154Z,100.00
2019-02-26T08:46:42.694Z,100.00
2019-02-26T08:49:15.148Z,100.00
2019-02-26T08:51:45.250Z,100.00
2019-02-26T08:54:20.950Z,100.00
2019-02-26T08:56:48.079Z,100.00
2019-02-26T08:59:20.146Z,100.00
2019-02-26T09:01:51.190Z,100.00
2019-02-26T09:04:23.789Z,100.00
2019-02-26T09:06:54.708Z,100.00
2019-02-26T09:09:27.820Z,92.43
2019-02-26T09:12:00.623Z,82.54
2019-02-26T09:14:34.421Z,82.54
2019-02-26T09:17:04.512Z,75.67
2019-02-26T09:19:36.021Z,71.77
2019-02-26T09:22:09.661Z,68.11
2019-02-26T09:24:41.000Z,64.90
2019-02-26T09:27:11.254Z,62.84
2019-02-26T09:29:47.170Z,62.42
2019-02-26T09:32:16.559Z,62.92
2019-02-26T09:34:48.148Z,65.17
2019-02-26T09:37:18.469Z,65.80
2019-02-26T09:39:48.873Z,64.12
2019-02-26T09:42:21.057Z,61.18
2019-02-26T09:44:53.055Z,59.86
2019-02-26T09:47:33.247Z,59.77
2019-02-26T09:50:02.768Z,59.01
2019-02-26T09:52:33.241Z,61.13
2019-02-26T09:55:03.972Z,63.24
2019-02-26T09:57:34.650Z,62.37
2019-02-26T10:00:07.946Z,64.66
2019-02-26T10:02:40.132Z,64.12
2019-02-26T10:05:13.513Z,64.97
2019-02-26T10:07:44.326Z,64.73
2019-02-26T10:10:16.417Z,65.40
2019-02-26T10:12:47.402Z,64.15
2019-02-26T10:15:17.795Z,66.98
2019-02-26T10:17:48.533Z,68.97
2019-02-26T10:20:22.600Z,67.13
2019-02-26T10:22:57.144Z,63.66
2019-02-26T10:25:28.662Z,60.69
2019-02-26T10:28:03.020Z,58.99
2019-02-26T10:30:33.386Z,59.40
2019-02-26T10:33:03.053Z,58.68
2019-02-26T10:35:36.084Z,59.91
2019-02-26T10:38:08.263Z,60.56
2019-02-26T10:40:50.724Z,62.36
2019-02-26T10:43:11.881Z,63.89
2019-02-26T10:45:44.797Z,68.80
2019-02-26T10:48:22.826Z,66.45
2019-02-26T10:50:52.319Z,61.95
2019-02-26T10:53:23.114Z,61.26
2019-02-26T10:55:53.868Z,59.31
2019-02-26T10:58:24.577Z,56.99
2019-02-26T11:00:58.248Z,56.92
2019-02-26T11:03:30.101Z,60.65
2019-02-26T11:06:01.025Z,61.18
2019-02-26T11:08:32.899Z,56.81
2019-02-26T11:11:05.209Z,55.63
2019-02-26T11:13:37.748Z,54.40
2019-02-26T11:16:08.899Z,55.53
2019-02-26T11:18:44.912Z,56.18
2019-02-26T11:21:15.025Z,57.14
2019-02-26T11:23:46.461Z,56.22
2019-02-26T11:26:18.737Z,57.32
2019-02-26T11:28:49.610Z,58.33
2019-02-26T11:31:25.030Z,58.51
2019-02-26T11:33:52.128Z,58.50
2019-02-26T11:36:22.454Z,60.41
2019-02-26T11:38:54.051Z,61.28
2019-02-26T11:41:26.456Z,63.17
2019-02-26T11:43:58.244Z,63.83
2019-02-26T11:46:29.897Z,63.90
2019-02-26T11:49:01.192Z,64.84
2019-02-26T11:51:37.094Z,66.83
2019-02-26T11:54:04.999Z,67.91
2019-02-26T11:56:39.681Z,69.67
2019-02-26T11:59:11.230Z,67.40
2019-02-26T12:01:42.128Z,66.02
2019-02-26T12:04:14.299Z,66.38
2019-02-26T12:06:45.051Z,65.79
2019-02-26T12:09:16.202Z,64.49
2019-02-26T12:11:46.702Z,64.14
2019-02-26T12:14:19.461Z,62.02
2019-02-26T12:16:49.092Z,63.29
2019-02-26T12:19:19.611Z,63.85
2019-02-26T12:21:51.860Z,63.60
2019-02-26T12:24:24.196Z,63.61
2019-02-26T12:26:55.998Z,64.54
2019-02-26T12:29:34.123Z,60.67
2019-02-26T12:32:06.286Z,58.42
2019-02-26T12:34:41.232Z,56.24
2019-02-26T12:37:14.426Z,54.84
2019-02-26T12:39:47.377Z,55.06
2019-02-26T12:42:21.700Z,56.85
2019-02-26T12:44:52.079Z,62.43
2019-02-26T12:47:24.652Z,65.36
2019-02-26T12:49:56.181Z,70.91
2019-02-26T12:52:30.207Z,75.20
2019-02-26T12:55:00.798Z,77.67
2019-02-26T12:57:32.126Z,78.98
2019-02-26T13:00:02.963Z,77.26
2019-02-26T13:02:36.266Z,78.86
2019-02-26T13:05:07.420Z,77.44
2019-02-26T13:07:38.460Z,76.89
2019-02-26T13:10:11.811Z,76.12
2019-02-26T13:12:47.198Z,79.28
2019-02-26T13:15:19.315Z,81.16
2019-02-26T13:17:54.189Z,81.21
2019-02-26T13:20:22.777Z,77.92
2019-02-26T13:22:56.469Z,78.83
2019-02-26T13:25:26.829Z,78.67
2019-02-26T13:27:57.439Z,74.19
2019-02-26T13:30:27.825Z,71.10
2019-02-26T13:33:00.869Z,72.26
2019-02-26T13:35:30.282Z,70.16
2019-02-26T13:38:00.683Z,75.26
2019-02-26T13:40:38.095Z,75.70
2019-02-26T13:45:34.542Z,77.60
2019-02-26T13:48:05.215Z,78.78
2019-02-26T13:50:35.558Z,76.65
2019-02-26T13:53:06.135Z,74.87
2019-02-26T13:55:36.458Z,75.76
2019-02-26T13:58:11.750Z,72.56
2019-02-26T14:00:39.433Z,71.54
2019-02-26T14:03:09.918Z,72.78
2019-02-26T14:05:40.920Z,74.32
2019-02-26T14:08:11.331Z,75.76
2019-02-26T14:10:41.657Z,75.60
2019-02-26T14:13:12.325Z,74.62
2019-02-26T14:15:42.748Z,74.60
2019-02-26T14:18:13.216Z,75.66
2019-02-26T14:20:45.628Z,79.37
2019-02-26T14:23:16.741Z,79.83
2019-02-26T14:25:47.403Z,82.72
2019-02-26T14:28:18.329Z,84.37
2019-02-26T14:30:48.696Z,84.81
2019-02-26T14:33:19.594Z,88.11
2019-02-26T14:35:50.646Z,91.32
2019-02-26T14:38:23.349Z,91.99
2019-02-26T14:40:53.763Z,90.46
2019-02-26T14:43:24.808Z,89.77
2019-02-26T14:45:55.969Z,92.96
2019-02-26T14:48:26.309Z,94.42
2019-02-26T14:50:57.114Z,96.36
2019-02-26T14:53:27.828Z,97.39
2019-02-26T14:55:58.500Z,92.88
2019-02-26T14:58:29.315Z,95.03
2019-02-26T15:01:00.489Z,98.08
2019-02-26T15:03:31.110Z,100.00
2019-02-26T15:06:02.745Z,100.00
2019-02-26T15:08:33.148Z,100.00
2019-02-26T15:11:03.575Z,100.00
2019-02-26T15:13:34.139Z,100.00
2019-02-26T15:16:04.794Z,100.00
2019-02-26T15:18:35.877Z,100.00
2019-02-26T15:21:06.498Z,100.00
2019-02-26T15:23:36.837Z,100.00
2019-02-26T15:26:07.142Z,100.00
2019-02-26T15:28:43.390Z,100.00
2019-02-26T15:31:13.880Z,100.00
2019-02-26T15:33:44.221Z,100.00
2019-02-26T15:36:14.980Z,100.00
2019-02-26T15:38:46.491Z,100.00
2019-02-26T15:41:16.802Z,100.00
2019-02-26T15:43:47.569Z,100.00
2019-02-26T15:46:17.942Z,100.00
2019-02-26T15:48:49.559Z,100.00
2019-02-26T15:51:20.697Z,100.00
2019-02-26T15:53:55.197Z,100.00
2019-02-26T15:56:23.461Z,100.00
2019-02-26T15:58:54.532Z,100.00
2019-02-26T16:01:24.945Z,100.00
2019-02-26T16:03:55.338Z,100.00
2019-02-26T16:06:25.747Z,100.00
2019-02-26T16:08:56.001Z,100.00
2019-02-26T16:11:26.667Z,100.00
2019-02-26T16:13:57.011Z,100.00
2019-02-26T16:16:27.607Z,100.00
2019-02-26T16:19:00.328Z,100.00
2019-02-26T16:21:30.039Z,100.00
2019-02-26T16:24:00.477Z,100.00
2019-02-26T16:26:30.818Z,100.00
2019-02-26T16:29:01.593Z,100.00
2019-02-26T16:31:32.338Z,100.00
2019-02-26T16:34:02.937Z,100.00
2019-02-26T16:36:33.433Z,100.00
2019-02-26T16:39:05.433Z,100.00
2019-02-26T16:41:38.346Z,100.00
2019-02-26T16:44:14.894Z,100.00
2019-02-26T16:46:46.481Z,100.00
2019-02-26T16:49:21.166Z,100.00
2019-02-26T16:51:54.916Z,100.00
2019-02-26T16:54:26.930Z,100.00
2019-02-26T16:56:57.907Z,100.00
2019-02-26T16:59:28.309Z,100.00
2019-02-26T17:01:58.998Z,100.00
2019-02-26T17:04:30.917Z,100.00
2019-02-26T17:07:01.518Z,100.00
2019-02-26T17:09:32.393Z,100.00
2019-02-26T17:12:06.231Z,100.00
2019-02-26T17:14:44.125Z,100.00
2019-02-26T17:17:21.938Z,100.00
2019-02-26T17:24:45.495Z,100.00
2019-02-26T17:27:30.861Z,100.00
2019-02-26T17:30:13.342Z,100.00
2019-02-26T17:33:18.686Z,100.00
2019-02-26T17:36:23.856Z,100.00
2019-02-26T17:39:15.571Z,100.00
2019-02-26T17:44:51.151Z,100.00
2019-02-26T17:47:24.599Z,100.00
2019-02-26T17:49:55.268Z,100.00
2019-02-26T17:52:26.286Z,100.00
2019-02-26T17:54:57.022Z,100.00
2019-02-26T17:57:28.323Z,100.00
2019-02-26T17:59:59.251Z,100.00
2019-02-26T18:02:29.473Z,100.00
2019-02-26T18:05:01.846Z,100.00
2019-02-26T18:07:33.049Z,100.00
2019-02-26T18:10:03.587Z,100.00
2019-02-26T18:12:33.986Z,100.00
2019-02-26T18:15:04.810Z,100.00
2019-02-26T18:17:35.574Z,100.00
2019-02-26T18:20:07.410Z,100.00
2019-02-26T18:22:38.249Z,100.00
2019-02-26T18:25:09.540Z,100.00
2019-02-26T18:27:40.021Z,100.00
2019-02-26T18:30:15.076Z,100.00
2019-02-26T18:32:50.143Z,100.00
2019-02-26T18:35:18.121Z,100.00
2019-02-26T18:37:49.180Z,100.00
2019-02-26T18:40:19.716Z,100.00
2019-02-26T18:42:50.929Z,100.00
2019-02-26T18:45:27.475Z,100.00
2019-02-26T18:47:56.906Z,100.00
2019-02-26T18:50:28.439Z,100.00
2019-02-26T18:52:59.937Z,100.00
2019-02-26T18:55:43.887Z,100.00
2019-02-26T18:58:24.684Z,100.00
2019-02-26T19:00:58.347Z,100.00
2019-02-26T19:03:27.548Z,100.00
2019-02-26T19:05:59.240Z,100.00
2019-02-26T19:08:29.925Z,100.00
2019-02-26T19:11:00.352Z,100.00
2019-02-26T19:13:33.303Z,100.00
2019-02-26T19:16:03.234Z,100.00
2019-02-26T19:18:35.790Z,100.00
2019-02-26T19:21:05.845Z,100.00
2019-02-26T19:23:50.161Z,100.00
2019-02-26T19:26:18.340Z,100.00
2019-02-26T19:28:49.103Z,100.00
2019-02-26T19:31:19.604Z,100.00
2019-02-26T19:33:49.927Z,100.00
2019-02-26T19:36:21.043Z,100.00
2019-02-26T19:38:51.805Z,100.00
2019-02-26T19:41:22.537Z,100.00
2019-02-26T19:43:52.872Z,100.00
2019-02-26T19:46:23.408Z,100.00
2019-02-26T19:48:53.863Z,100.00
2019-02-26T19:51:25.640Z,100.00
2019-02-26T19:53:56.331Z,100.00
2019-02-26T19:56:26.883Z,100.00
2019-02-26T19:58:57.353Z,100.00
2019-02-26T20:01:28.076Z,100.00
2019-02-26T20:03:58.536Z,100.00
2019-02-26T20:06:30.538Z,100.00
2019-02-26T20:09:01.082Z,100.00
2019-02-26T20:11:31.521Z,100.00
2019-02-26T20:14:04.694Z,100.00
2019-02-26T20:16:34.932Z,100.00
2019-02-26T20:19:08.607Z,100.00
2019-02-26T20:21:45.096Z,100.00
2019-02-26T20:24:16.601Z,100.00
2019-02-26T20:26:49.983Z,100.00
2019-02-26T20:29:20.173Z,100.00
2019-02-26T20:31:50.800Z,100.00
2019-02-26T20:34:21.798Z,100.00
2019-02-26T20:36:52.066Z,100.00
2019-02-26T20:39:25.224Z,100.00
2019-02-26T20:41:56.194Z,100.00
2019-02-26T20:44:26.589Z,100.00
2019-02-26T20:46:58.143Z,100.00
2019-02-26T20:49:29.099Z,100.00
2019-02-26T20:52:00.215Z,100.00
2019-02-26T20:54:30.426Z,100.00
2019-02-26T20:57:03.759Z,100.00
2019-02-26T20:59:33.139Z,100.00
2019-02-26T21:02:03.342Z,100.00
2019-02-26T21:04:34.158Z,100.00
2019-02-26T21:07:04.554Z,100.00
2019-02-26T21:09:40.143Z,100.00
2019-02-26T21:12:13.772Z,100.00
2019-02-26T21:14:44.086Z,100.00
2019-02-26T21:17:14.663Z,100.00
2019-02-26T21:19:47.606Z,100.00
2019-02-26T21:22:19.743Z,100.00
2019-02-26T21:24:50.476Z,100.00
2019-02-26T21:27:23.799Z,100.00
2019-02-26T21:29:54.938Z,100.00
2019-02-26T21:32:26.313Z,100.00
2019-02-26T21:34:57.101Z,100.00
2019-02-26T21:37:27.462Z,100.00
2019-02-26T21:39:57.909Z,100.00
2019-02-26T21:42:29.483Z,100.00
2019-02-26T21:45:00.324Z,100.00
2019-02-26T21:47:35.129Z,100.00
2019-02-26T21:50:06.929Z,100.00
2019-02-26T21:52:37.207Z,100.00
2019-02-26T21:55:08.275Z,100.00
2019-02-26T21:57:38.567Z,100.00
2019-02-26T22:00:13.448Z,100.00
2019-02-26T22:02:52.010Z,100.00
2019-02-26T22:05:25.420Z,100.00
2019-02-26T22:07:58.628Z,100.00
2019-02-26T22:10:30.279Z,100.00
2019-02-26T22:13:04.922Z,100.00
2019-02-26T22:15:36.299Z,100.00
2019-02-26T22:18:14.026Z,100.00
2019-02-26T22:20:46.726Z,100.00
2019-02-26T22:23:17.362Z,100.00
2019-02-26T22:25:49.770Z,100.00
2019-02-26T22:28:20.485Z,100.00
2019-02-26T22:30:51.075Z,100.00
2019-02-26T22:33:21.414Z,100.00
2019-02-26T22:35:51.988Z,100.00
2019-02-26T22:38:22.374Z,100.00
2019-02-26T22:40:55.837Z,100.00
2019-02-26T22:43:26.309Z,100.00
2019-02-26T22:46:00.768Z,100.00
2019-02-26T22:48:29.673Z,100.00
2019-02-26T22:51:01.132Z,100.00
2019-02-26T22:53:31.592Z,100.00
2019-02-26T22:56:02.024Z,100.00
2019-02-26T22:58:35.592Z,100.00
2019-02-26T23:01:18.545Z,100.00
2019-02-26T23:03:49.209Z,100.00
2019-02-26T23:06:19.496Z,100.00
2019-02-26T23:08:49.780Z,100.00
2019-02-26T23:11:20.449Z,100.00
2019-02-26T23:13:51.045Z,100.00
2019-02-26T23:16:21.492Z,100.00
2019-02-26T23:18:52.191Z,100.00
2019-02-26T23:21:22.976Z,100.00
2019-02-26T23:23:54.923Z,100.00
2019-02-26T23:26:25.316Z,100.00
2019-02-26T23:28:55.640Z,100.00
2019-02-26T23:31:26.105Z,100.00
2019-02-26T23:33:56.535Z,100.00
2019-02-26T23:36:28.545Z,100.00
2019-02-26T23:38:59.513Z,100.00
2019-02-26T23:41:30.809Z,100.00
2019-02-26T23:44:02.238Z,100.00
2019-02-26T23:46:32.780Z,100.00
2019-02-26T23:49:03.066Z,100.00
2019-02-26T23:51:33.451Z,100.00
2019-02-26T23:54:07.164Z,100.00
2019-02-26T23:56:36.661Z,100.00
2019-02-26T23:59:07.047Z,100.00
